Time;durP1;ratioP1;P1;durP2;ratioP2;P2;SDS_P1;SDS_P2;PMS_P1;PMS_P2;Temp;Humidity;BMP_temperature;BMP_pressure;BME280_temperature;BME280_humidity;BME280_pressure;Samples;Min_cycle;Max_cycle;Signal;HPM_P1;HPM_P2
2023/07/31 00:00:57;;;;;;;2.67;1.67;;;;;;;;;;5087650;28;20321;-65
2023/07/31 00:03:25;;;;;;;2.97;1.17;;;;;;;;;;5097797;28;20227;-65
2023/07/31 00:05:53;;;;;;;1.67;1.17;;;;;;;;;;5097731;28;20204;-64
2023/07/31 00:08:20;;;;;;;4.53;1.47;;;;;;;;;;5097868;28;20207;-64
2023/07/31 00:10:48;;;;;;;2.67;1.43;;;;;;;;;;5097901;28;20233;-65
2023/07/31 00:13:16;;;;;;;3.50;2.13;;;;;;;;;;5097957;28;20214;-65
2023/07/31 00:15:43;;;;;;;2.70;1.27;;;;;;;;;;5097950;28;20209;-65
2023/07/31 00:18:13;;;;;;;3.60;1.23;;;;;;;;;;5098201;28;20232;-64
2023/07/31 00:20:40;;;;;;;2.13;1.30;;;;;;;;;;5097817;28;20281;-64
2023/07/31 00:23:08;;;;;;;2.77;1.30;;;;;;;;;;5097289;28;20774;-65
2023/07/31 00:25:36;;;;;;;4.23;1.60;;;;;;;;;;5097510;28;20244;-65
2023/07/31 00:28:04;;;;;;;1.67;1.43;;;;;;;;;;5097764;28;20551;-65
2023/07/31 00:30:32;;;;;;;1.50;1.40;;;;;;;;;;5097709;28;20235;-65
2023/07/31 00:33:00;;;;;;;4.47;1.60;;;;;;;;;;5097702;28;20230;-65
2023/07/31 00:35:29;;;;;;;2.30;1.60;;;;;;;;;;5097855;28;20219;-65
2023/07/31 00:37:57;;;;;;;1.70;1.17;;;;;;;;;;5097351;28;20214;-64
2023/07/31 00:40:25;;;;;;;4.77;1.77;;;;;;;;;;5090387;28;20327;-64
2023/07/31 00:42:52;;;;;;;3.60;1.73;;;;;;;;;;5097670;28;20676;-64
2023/07/31 00:45:22;;;;;;;2.63;1.60;;;;;;;;;;5097372;28;20292;-65
2023/07/31 00:47:50;;;;;;;2.60;1.30;;;;;;;;;;5101515;28;20241;-65
2023/07/31 00:50:18;;;;;;;2.30;1.37;;;;;;;;;;5101304;28;20230;-65
2023/07/31 00:52:47;;;;;;;1.93;1.40;;;;;;;;;;5101064;28;20275;-64
2023/07/31 00:55:15;;;;;;;3.93;1.33;;;;;;;;;;5101309;28;20219;-65
2023/07/31 00:57:46;;;;;;;2.20;1.57;;;;;;;;;;5101408;28;20209;-65
2023/07/31 01:00:13;;;;;;;2.00;1.40;;;;;;;;;;5091124;28;20271;-65
2023/07/31 01:02:41;;;;;;;5.13;1.50;;;;;;;;;;5100898;28;20231;-65
2023/07/31 01:05:09;;;;;;;3.33;1.40;;;;;;;;;;5101164;28;20212;-64
2023/07/31 01:07:42;;;;;;;2.30;1.23;;;;;;;;;;5100780;28;20656;-64
2023/07/31 01:10:16;;;;;;;2.70;1.20;;;;;;;;;;5100958;28;20224;-64
2023/07/31 01:12:45;;;;;;;4.97;1.63;;;;;;;;;;5100797;28;20211;-65
2023/07/31 01:15:14;;;;;;;1.20;1.10;;;;;;;;;;5100808;28;20690;-65
2023/07/31 01:17:43;;;;;;;3.47;1.40;;;;;;;;;;5100785;28;20204;-65
2023/07/31 01:20:12;;;;;;;4.60;1.30;;;;;;;;;;5100769;28;20235;-64
2023/07/31 01:23:04;;;;;;;3.03;1.37;;;;;;;;;;5100356;28;20230;-64
2023/07/31 01:25:44;;;;;;;2.90;1.30;;;;;;;;;;5043925;28;20216;-65
2023/07/31 01:28:14;;;;;;;2.90;1.60;;;;;;;;;;5100728;28;20210;-64
2023/07/31 01:30:43;;;;;;;3.33;1.60;;;;;;;;;;5100601;28;20602;-64
2023/07/31 01:33:11;;;;;;;3.00;1.20;;;;;;;;;;5100746;28;20211;-64
2023/07/31 01:35:39;;;;;;;4.30;1.37;;;;;;;;;;5100264;28;20209;-64
2023/07/31 01:38:07;;;;;;;6.00;1.30;;;;;;;;;;5100214;28;20277;-65
2023/07/31 01:40:34;;;;;;;2.30;1.30;;;;;;;;;;5093176;28;20227;-65
2023/07/31 01:43:04;;;;;;;2.93;1.50;;;;;;;;;;5100427;28;20751;-64
2023/07/31 01:45:32;;;;;;;4.13;1.77;;;;;;;;;;5100101;28;20239;-64
2023/07/31 01:47:59;;;;;;;1.53;1.30;;;;;;;;;;5100391;28;20211;-64
2023/07/31 01:50:27;;;;;;;2.73;1.10;;;;;;;;;;5100239;28;20260;-65
2023/07/31 01:52:55;;;;;;;3.57;1.43;;;;;;;;;;5099621;28;20203;-65
2023/07/31 01:55:23;;;;;;;6.97;1.40;;;;;;;;;;5099930;28;20657;-64
2023/07/31 01:57:50;;;;;;;2.40;1.40;;;;;;;;;;5100084;28;20574;-64
2023/07/31 02:00:20;;;;;;;3.00;1.33;;;;;;;;;;5089926;28;20271;-64
2023/07/31 02:02:47;;;;;;;2.33;1.33;;;;;;;;;;5099983;28;20317;-64
2023/07/31 02:05:15;;;;;;;1.90;1.40;;;;;;;;;;5099804;28;20296;-64
2023/07/31 02:07:43;;;;;;;2.73;1.67;;;;;;;;;;5099661;28;20211;-64
2023/07/31 02:10:11;;;;;;;1.87;1.47;;;;;;;;;;5099842;28;20222;-64
2023/07/31 02:12:39;;;;;;;2.47;1.47;;;;;;;;;;5099910;28;20211;-65
2023/07/31 02:15:07;;;;;;;2.50;1.47;;;;;;;;;;5099813;28;20211;-64
2023/07/31 02:17:36;;;;;;;2.80;1.43;;;;;;;;;;5099780;28;20239;-65
2023/07/31 02:20:04;;;;;;;4.27;1.50;;;;;;;;;;5099672;28;20310;-64
2023/07/31 02:22:31;;;;;;;3.43;1.40;;;;;;;;;;5099199;28;20231;-64
2023/07/31 02:24:59;;;;;;;5.03;1.43;;;;;;;;;;5099653;28;20299;-65
2023/07/31 02:27:27;;;;;;;2.47;1.37;;;;;;;;;;5099562;28;20205;-65
2023/07/31 02:29:55;;;;;;;2.90;1.10;;;;;;;;;;5099512;28;20230;-65
2023/07/31 02:32:23;;;;;;;2.57;1.47;;;;;;;;;;5099366;28;20664;-65
2023/07/31 02:34:52;;;;;;;2.23;1.43;;;;;;;;;;5099269;28;20562;-65
2023/07/31 02:37:20;;;;;;;4.77;1.67;;;;;;;;;;5099060;28;20263;-65
2023/07/31 02:39:47;;;;;;;2.93;1.77;;;;;;;;;;5096994;28;20213;-65
2023/07/31 02:42:15;;;;;;;4.50;1.30;;;;;;;;;;5094555;28;20683;-65
2023/07/31 02:44:43;;;;;;;2.60;1.30;;;;;;;;;;5098988;28;20214;-65
2023/07/31 02:47:11;;;;;;;5.17;1.37;;;;;;;;;;5099145;28;20302;-65
2023/07/31 02:49:38;;;;;;;2.47;1.40;;;;;;;;;;5098761;28;20213;-65
2023/07/31 02:52:08;;;;;;;1.73;1.23;;;;;;;;;;5098749;28;20678;-65
2023/07/31 02:54:35;;;;;;;4.63;1.60;;;;;;;;;;5098830;28;20212;-65
2023/07/31 02:57:04;;;;;;;2.50;1.70;;;;;;;;;;5099027;28;20231;-65
2023/07/31 02:59:32;;;;;;;2.33;1.50;;;;;;;;;;5091365;28;20318;-65
2023/07/31 03:02:00;;;;;;;2.63;1.30;;;;;;;;;;5097084;28;20223;-65
2023/07/31 03:04:27;;;;;;;2.40;1.33;;;;;;;;;;5098901;28;20226;-65
2023/07/31 03:06:55;;;;;;;2.10;1.30;;;;;;;;;;5098426;28;20209;-65
2023/07/31 03:09:24;;;;;;;2.60;1.40;;;;;;;;;;5098107;28;20202;-65
2023/07/31 03:11:52;;;;;;;1.80;1.33;;;;;;;;;;5098601;28;20237;-65
2023/07/31 03:14:19;;;;;;;2.20;1.47;;;;;;;;;;5098728;28;20198;-65
2023/07/31 03:16:47;;;;;;;3.43;1.50;;;;;;;;;;5098607;28;20212;-65
2023/07/31 03:19:15;;;;;;;3.23;1.87;;;;;;;;;;5098695;28;20205;-65
2023/07/31 03:21:43;;;;;;;1.47;1.10;;;;;;;;;;5098096;28;20302;-65
2023/07/31 03:24:11;;;;;;;3.77;1.43;;;;;;;;;;5098144;28;20661;-65
2023/07/31 03:26:41;;;;;;;3.60;1.60;;;;;;;;;;5098500;28;20289;-65
2023/07/31 03:29:09;;;;;;;2.70;1.70;;;;;;;;;;5098210;28;20321;-65
2023/07/31 03:31:36;;;;;;;4.20;2.33;;;;;;;;;;5098302;28;20229;-65
2023/07/31 03:34:04;;;;;;;2.93;1.50;;;;;;;;;;5098400;28;20207;-65
2023/07/31 03:36:32;;;;;;;3.73;1.47;;;;;;;;;;5097762;28;20293;-65
2023/07/31 03:39:00;;;;;;;2.27;1.57;;;;;;;;;;5098296;28;20244;-64
2023/07/31 03:41:27;;;;;;;2.23;1.20;;;;;;;;;;5091429;28;20218;-65
2023/07/31 03:43:56;;;;;;;3.70;1.67;;;;;;;;;;5098181;28;20248;-65
2023/07/31 03:46:24;;;;;;;3.47;1.60;;;;;;;;;;5098188;28;20223;-65
2023/07/31 03:48:52;;;;;;;1.40;1.30;;;;;;;;;;5098108;28;20204;-65
2023/07/31 03:51:20;;;;;;;3.53;1.57;;;;;;;;;;5097701;28;20233;-65
2023/07/31 03:53:48;;;;;;;2.53;1.40;;;;;;;;;;5098180;28;20216;-65
2023/07/31 03:56:15;;;;;;;2.90;1.47;;;;;;;;;;5098192;28;20212;-65
2023/07/31 03:58:43;;;;;;;2.37;1.30;;;;;;;;;;5097457;28;20208;-65
2023/07/31 04:01:12;;;;;;;2.77;1.50;;;;;;;;;;5088531;28;20244;-65
2023/07/31 04:03:40;;;;;;;4.47;1.67;;;;;;;;;;5097995;28;20691;-65
2023/07/31 04:06:08;;;;;;;3.87;1.60;;;;;;;;;;5097433;28;20209;-65
2023/07/31 04:08:36;;;;;;;2.73;1.53;;;;;;;;;;5097983;28;20293;-65
2023/07/31 04:11:03;;;;;;;4.10;1.53;;;;;;;;;;5097920;28;20230;-65
2023/07/31 04:13:31;;;;;;;2.50;1.40;;;;;;;;;;5097943;28;20731;-65
2023/07/31 04:15:59;;;;;;;3.60;1.50;;;;;;;;;;5097968;28;20215;-65
2023/07/31 04:18:28;;;;;;;2.77;1.80;;;;;;;;;;5097607;28;20569;-65
2023/07/31 04:20:56;;;;;;;3.60;1.50;;;;;;;;;;5098220;28;20233;-65
2023/07/31 04:23:23;;;;;;;3.87;1.40;;;;;;;;;;5102388;28;20229;-65
2023/07/31 04:25:51;;;;;;;4.97;1.57;;;;;;;;;;5101965;28;20202;-65
2023/07/31 04:28:19;;;;;;;1.90;1.60;;;;;;;;;;5101651;28;20209;-65
2023/07/31 04:30:47;;;;;;;2.70;1.40;;;;;;;;;;5101447;28;20222;-65
2023/07/31 04:33:18;;;;;;;1.50;1.40;;;;;;;;;;5101879;28;20218;-65
2023/07/31 04:35:52;;;;;;;4.37;1.77;;;;;;;;;;5101226;28;20262;-65
2023/07/31 04:38:19;;;;;;;3.67;1.43;;;;;;;;;;5101771;28;20213;-65
2023/07/31 04:40:47;;;;;;;3.77;1.60;;;;;;;;;;5094116;28;20228;-65
2023/07/31 04:43:15;;;;;;;7.97;4.23;;;;;;;;;;5101556;28;20303;-65
2023/07/31 04:45:42;;;;;;;2.57;1.20;;;;;;;;;;5101598;28;20208;-65
2023/07/31 04:48:10;;;;;;;2.57;1.70;;;;;;;;;;5101659;28;20238;-65
2023/07/31 04:50:38;;;;;;;4.93;1.47;;;;;;;;;;5101231;28;20316;-65
2023/07/31 04:53:07;;;;;;;2.40;1.50;;;;;;;;;;5101197;28;20217;-65
2023/07/31 04:55:35;;;;;;;3.10;1.63;;;;;;;;;;5101081;28;20292;-65
2023/07/31 04:58:02;;;;;;;4.33;2.33;;;;;;;;;;5101410;28;20201;-65
2023/07/31 05:00:30;;;;;;;6.07;1.90;;;;;;;;;;5091194;28;20252;-65
2023/07/31 05:02:58;;;;;;;4.53;1.97;;;;;;;;;;5101277;28;20279;-65
2023/07/31 05:05:26;;;;;;;2.23;1.90;;;;;;;;;;5101120;28;20226;-65
2023/07/31 05:07:53;;;;;;;4.70;1.57;;;;;;;;;;5100566;28;20246;-65
2023/07/31 05:10:23;;;;;;;3.63;1.77;;;;;;;;;;5100941;28;20229;-64
2023/07/31 05:12:50;;;;;;;2.57;1.57;;;;;;;;;;5100755;28;20206;-64
2023/07/31 05:15:18;;;;;;;2.67;1.80;;;;;;;;;;5101051;28;20288;-64
2023/07/31 05:17:46;;;;;;;2.40;1.57;;;;;;;;;;5100905;28;20265;-64
2023/07/31 05:20:14;;;;;;;2.83;1.90;;;;;;;;;;5100874;28;20260;-62
2023/07/31 05:22:42;;;;;;;4.93;1.60;;;;;;;;;;5100179;28;20209;-63
2023/07/31 05:25:10;;;;;;;7.00;2.10;;;;;;;;;;5100647;28;20703;-65
2023/07/31 05:27:39;;;;;;;3.60;1.63;;;;;;;;;;5100496;28;20233;-63
2023/07/31 05:30:07;;;;;;;3.83;1.80;;;;;;;;;;5100641;28;20225;-64
2023/07/31 05:32:35;;;;;;;3.67;1.70;;;;;;;;;;5099714;28;20228;-62
2023/07/31 05:35:03;;;;;;;4.50;1.90;;;;;;;;;;5100640;28;20201;-63
2023/07/31 05:37:31;;;;;;;3.27;2.20;;;;;;;;;;5099815;28;20209;-63
2023/07/31 05:39:58;;;;;;;4.53;2.50;;;;;;;;;;5096244;28;20226;-63
2023/07/31 05:42:26;;;;;;;5.77;2.00;;;;;;;;;;5096515;28;20300;-65
2023/07/31 05:44:55;;;;;;;6.43;1.87;;;;;;;;;;5100087;28;20309;-63
2023/07/31 05:47:23;;;;;;;4.93;2.30;;;;;;;;;;5100337;28;20216;-64
2023/07/31 05:49:52;;;;;;;3.30;1.97;;;;;;;;;;5099943;28;20316;-64
2023/07/31 05:52:20;;;;;;;4.80;2.90;;;;;;;;;;5099298;28;20213;-63
2023/07/31 05:54:47;;;;;;;5.33;2.27;;;;;;;;;;5099760;28;20729;-65
2023/07/31 05:57:15;;;;;;;7.13;2.30;;;;;;;;;;5099415;28;20634;-64
2023/07/31 05:59:43;;;;;;;5.47;2.50;;;;;;;;;;5090144;28;20238;-63
2023/07/31 06:02:12;;;;;;;6.83;2.40;;;;;;;;;;5099606;28;20665;-64
2023/07/31 06:04:40;;;;;;;3.53;2.03;;;;;;;;;;5100028;28;20229;-64
2023/07/31 06:07:08;;;;;;;6.30;2.13;;;;;;;;;;5099636;28;20232;-64
2023/07/31 06:09:35;;;;;;;3.37;2.00;;;;;;;;;;5099780;28;20265;-65
2023/07/31 06:12:03;;;;;;;4.17;2.00;;;;;;;;;;5099870;28;20201;-65
2023/07/31 06:14:31;;;;;;;4.47;2.20;;;;;;;;;;5099806;28;20282;-64
2023/07/31 06:16:59;;;;;;;4.87;2.10;;;;;;;;;;5099530;28;20263;-62
2023/07/31 06:19:28;;;;;;;5.03;2.23;;;;;;;;;;5099702;28;20212;-63
2023/07/31 06:21:55;;;;;;;9.40;2.60;;;;;;;;;;5099387;28;20209;-63
2023/07/31 06:24:23;;;;;;;6.03;2.50;;;;;;;;;;5099483;28;20201;-63
2023/07/31 06:26:51;;;;;;;4.13;2.30;;;;;;;;;;5099504;28;20216;-62
2023/07/31 06:29:19;;;;;;;7.70;2.40;;;;;;;;;;5099629;28;20209;-64
2023/07/31 06:31:47;;;;;;;4.97;2.70;;;;;;;;;;5099364;28;20233;-63
2023/07/31 06:34:15;;;;;;;6.43;2.23;;;;;;;;;;5099490;28;20330;-63
2023/07/31 06:36:44;;;;;;;5.27;2.97;;;;;;;;;;5098849;28;20567;-63
2023/07/31 06:39:12;;;;;;;5.33;2.30;;;;;;;;;;5099228;28;20205;-63
2023/07/31 06:41:39;;;;;;;5.47;2.53;;;;;;;;;;5091239;28;20723;-64
2023/07/31 06:44:07;;;;;;;9.50;2.70;;;;;;;;;;5098416;28;20237;-64
2023/07/31 06:46:35;;;;;;;4.87;2.37;;;;;;;;;;5099176;28;20232;-64
2023/07/31 06:49:03;;;;;;;9.07;2.37;;;;;;;;;;5099111;28;20208;-64
2023/07/31 06:51:31;;;;;;;2.83;1.93;;;;;;;;;;5098352;28;20233;-64
2023/07/31 06:54:00;;;;;;;10.67;3.23;;;;;;;;;;5098954;28;20240;-64
2023/07/31 06:56:28;;;;;;;3.17;2.63;;;;;;;;;;5099062;28;20213;-64
2023/07/31 06:58:56;;;;;;;7.03;2.53;;;;;;;;;;5096345;28;20642;-63
2023/07/31 07:01:24;;;;;;;5.80;2.23;;;;;;;;;;5091896;28;20226;-63
2023/07/31 07:03:52;;;;;;;7.67;3.00;;;;;;;;;;5098867;28;20271;-64
2023/07/31 07:06:20;;;;;;;7.67;3.17;;;;;;;;;;5098102;28;20228;-63
2023/07/31 07:08:47;;;;;;;5.40;2.37;;;;;;;;;;5098751;28;20214;-64
2023/07/31 07:11:16;;;;;;;5.83;2.27;;;;;;;;;;5098550;28;20232;-64
2023/07/31 07:13:44;;;;;;;4.10;2.60;;;;;;;;;;5098431;28;20571;-64
2023/07/31 07:16:12;;;;;;;5.93;2.63;;;;;;;;;;5098446;28;20682;-64
2023/07/31 07:18:40;;;;;;;9.70;3.17;;;;;;;;;;5098361;28;20310;-64
2023/07/31 07:21:20;;;;;;;4.80;2.40;;;;;;;;;;5097862;28;20309;-64
2023/07/31 07:23:48;;;;;;;6.00;2.50;;;;;;;;;;5098577;28;20213;-64
2023/07/31 07:26:17;;;;;;;4.00;2.73;;;;;;;;;;5098247;28;20236;-63
2023/07/31 07:28:45;;;;;;;5.33;2.37;;;;;;;;;;5098502;28;20572;-64
2023/07/31 07:31:13;;;;;;;4.50;2.17;;;;;;;;;;5098189;28;20223;-64
2023/07/31 07:33:40;;;;;;;3.93;2.13;;;;;;;;;;5098392;28;20206;-64
2023/07/31 07:36:09;;;;;;;4.83;2.30;;;;;;;;;;5097690;28;20203;-64
2023/07/31 07:38:39;;;;;;;3.20;2.37;;;;;;;;;;5098380;28;20645;-64
2023/07/31 07:41:07;;;;;;;4.57;2.63;;;;;;;;;;5091107;28;20316;-65
2023/07/31 07:43:36;;;;;;;5.87;2.33;;;;;;;;;;5098247;28;20239;-64
2023/07/31 07:46:03;;;;;;;4.73;2.00;;;;;;;;;;5098014;28;20228;-64
2023/07/31 07:48:31;;;;;;;3.87;2.07;;;;;;;;;;5098088;28;20242;-64
2023/07/31 07:50:59;;;;;;;4.30;1.67;;;;;;;;;;5097409;28;20304;-64
2023/07/31 07:53:27;;;;;;;3.77;2.07;;;;;;;;;;5097745;28;20209;-64
2023/07/31 07:55:54;;;;;;;5.43;2.27;;;;;;;;;;5097930;28;20297;-65
2023/07/31 07:58:22;;;;;;;3.57;2.13;;;;;;;;;;5097987;28;20209;-64
2023/07/31 08:00:53;;;;;;;4.13;2.10;;;;;;;;;;5088211;28;20279;-64
2023/07/31 08:03:20;;;;;;;3.93;1.90;;;;;;;;;;5097673;28;20370;-65
2023/07/31 08:05:48;;;;;;;3.93;1.97;;;;;;;;;;5097639;28;20230;-64
2023/07/31 08:08:17;;;;;;;3.50;1.60;;;;;;;;;;5097828;28;20238;-64
2023/07/31 08:10:44;;;;;;;3.20;1.60;;;;;;;;;;5097835;28;20234;-65
2023/07/31 08:13:12;;;;;;;3.10;1.70;;;;;;;;;;5097622;28;20304;-65
2023/07/31 08:15:42;;;;;;;4.53;1.80;;;;;;;;;;5097604;28;20199;-64
2023/07/31 08:18:11;;;;;;;3.97;1.70;;;;;;;;;;5097649;28;20689;-65
2023/07/31 08:20:39;;;;;;;3.10;1.83;;;;;;;;;;5097462;28;20231;-65
2023/07/31 08:23:07;;;;;;;4.30;1.93;;;;;;;;;;5097450;28;20205;-65
2023/07/31 08:25:35;;;;;;;4.80;2.10;;;;;;;;;;5097711;28;20225;-65
2023/07/31 08:28:03;;;;;;;2.87;2.10;;;;;;;;;;5097738;28;20213;-64
2023/07/31 08:30:31;;;;;;;3.40;2.03;;;;;;;;;;5097658;28;20708;-65
2023/07/31 08:32:59;;;;;;;3.67;2.00;;;;;;;;;;5097680;28;20717;-65
2023/07/31 08:35:29;;;;;;;2.80;1.90;;;;;;;;;;5097707;28;20218;-65
2023/07/31 08:37:56;;;;;;;2.60;2.17;;;;;;;;;;5097262;28;20581;-64
2023/07/31 08:40:24;;;;;;;5.47;1.70;;;;;;;;;;5090176;28;20219;-65
2023/07/31 08:42:54;;;;;;;4.23;1.63;;;;;;;;;;5097703;28;20206;-65
2023/07/31 08:45:21;;;;;;;2.40;1.90;;;;;;;;;;5097402;28;20201;-64
2023/07/31 08:47:50;;;;;;;4.60;2.03;;;;;;;;;;5097621;28;20237;-65
2023/07/31 08:50:19;;;;;;;2.80;1.43;;;;;;;;;;5097406;28;20221;-64
2023/07/31 08:52:50;;;;;;;7.07;1.80;;;;;;;;;;5096979;28;20293;-65
2023/07/31 08:55:23;;;;;;;2.53;1.80;;;;;;;;;;5097577;28;20634;-65
2023/07/31 08:57:52;;;;;;;8.43;3.87;;;;;;;;;;5097495;28;20250;-65
2023/07/31 09:00:23;;;;;;;4.20;1.80;;;;;;;;;;5087088;28;20580;-64
2023/07/31 09:02:55;;;;;;;4.70;1.90;;;;;;;;;;5097289;28;20233;-65
2023/07/31 09:05:23;;;;;;;3.90;1.80;;;;;;;;;;5097267;28;20261;-65
2023/07/31 09:07:53;;;;;;;5.67;2.20;;;;;;;;;;5099196;28;20778;-65
2023/07/31 09:10:21;;;;;;;4.60;2.00;;;;;;;;;;5100951;28;20234;-65
2023/07/31 09:12:49;;;;;;;3.43;1.83;;;;;;;;;;5100751;28;20681;-64
2023/07/31 09:15:17;;;;;;;5.67;1.60;;;;;;;;;;5101060;28;20211;-65
2023/07/31 09:18:00;;;;;;;6.07;1.70;;;;;;;;;;5101012;28;20706;-65
2023/07/31 09:20:27;;;;;;;3.37;1.60;;;;;;;;;;5100506;28;20225;-65
2023/07/31 09:22:58;;;;;;;5.07;2.00;;;;;;;;;;5100714;28;20201;-65
2023/07/31 09:25:26;;;;;;;3.47;1.90;;;;;;;;;;5100907;28;20211;-65
2023/07/31 09:27:55;;;;;;;3.43;1.70;;;;;;;;;;5100401;28;20223;-64
2023/07/31 09:30:22;;;;;;;4.50;1.83;;;;;;;;;;5100598;28;20230;-65
2023/07/31 09:32:51;;;;;;;3.67;1.60;;;;;;;;;;5100634;28;20205;-65
2023/07/31 09:35:20;;;;;;;4.60;1.90;;;;;;;;;;5100389;28;20258;-64
2023/07/31 09:37:51;;;;;;;4.80;2.53;;;;;;;;;;5100335;28;20211;-65
2023/07/31 09:40:30;;;;;;;5.00;1.70;;;;;;;;;;5093767;28;20225;-65
2023/07/31 09:42:59;;;;;;;2.33;1.70;;;;;;;;;;5088126;28;20211;-64
2023/07/31 09:45:27;;;;;;;7.83;1.83;;;;;;;;;;5100401;28;20683;-64
2023/07/31 09:48:08;;;;;;;4.67;1.77;;;;;;;;;;5100147;28;20232;-64
2023/07/31 09:50:37;;;;;;;3.63;1.47;;;;;;;;;;5099884;28;20228;-65
2023/07/31 09:53:05;;;;;;;4.63;2.20;;;;;;;;;;5100241;28;20202;-65
2023/07/31 09:55:34;;;;;;;3.27;1.63;;;;;;;;;;5100198;28;20213;-65
2023/07/31 09:58:04;;;;;;;3.97;2.10;;;;;;;;;;5099981;28;20210;-65
2023/07/31 10:00:32;;;;;;;3.93;1.80;;;;;;;;;;5090122;28;20245;-65
2023/07/31 10:03:01;;;;;;;5.97;2.70;;;;;;;;;;5100082;28;20207;-64
2023/07/31 10:05:32;;;;;;;3.50;1.83;;;;;;;;;;5086297;28;20665;-65
2023/07/31 10:08:00;;;;;;;3.87;1.70;;;;;;;;;;5099809;28;20276;-63
2023/07/31 10:10:28;;;;;;;4.13;1.87;;;;;;;;;;5099850;28;20229;-63
2023/07/31 10:12:58;;;;;;;4.73;1.80;;;;;;;;;;5099634;28;20234;-63
2023/07/31 10:15:26;;;;;;;7.87;2.10;;;;;;;;;;5099659;28;20258;-64
2023/07/31 10:17:55;;;;;;;5.80;2.13;;;;;;;;;;5099321;28;20205;-65
2023/07/31 10:20:24;;;;;;;5.63;1.90;;;;;;;;;;5099261;28;20225;-65
2023/07/31 10:22:55;;;;;;;8.33;1.90;;;;;;;;;;5099530;28;20580;-66
2023/07/31 10:25:23;;;;;;;5.37;2.10;;;;;;;;;;5099617;28;20687;-65
2023/07/31 10:27:52;;;;;;;3.40;1.50;;;;;;;;;;5099821;28;20225;-65
2023/07/31 10:30:22;;;;;;;4.70;2.03;;;;;;;;;;5099502;28;20237;-64
2023/07/31 10:32:50;;;;;;;2.90;1.90;;;;;;;;;;5099232;28;20205;-65
2023/07/31 10:35:18;;;;;;;4.63;2.23;;;;;;;;;;5099571;28;20205;-65
2023/07/31 10:37:46;;;;;;;7.57;2.40;;;;;;;;;;5099077;28;20201;-64
2023/07/31 10:40:28;;;;;;;3.77;1.90;;;;;;;;;;5093033;28;20244;-65
2023/07/31 10:42:57;;;;;;;4.20;1.77;;;;;;;;;;5087299;28;20215;-65
2023/07/31 10:45:31;;;;;;;4.47;1.90;;;;;;;;;;5099281;28;20213;-64
2023/07/31 10:48:00;;;;;;;4.10;2.10;;;;;;;;;;5099182;28;20229;-63
2023/07/31 10:50:29;;;;;;;3.63;1.80;;;;;;;;;;5098756;28;20247;-63
2023/07/31 10:52:57;;;;;;;1.97;1.77;;;;;;;;;;5099080;28;20211;-62
2023/07/31 10:55:29;;;;;;;4.63;2.07;;;;;;;;;;5098846;28;20210;-64
2023/07/31 10:57:57;;;;;;;3.43;2.00;;;;;;;;;;5099063;28;20290;-63
2023/07/31 11:00:28;;;;;;;4.50;2.07;;;;;;;;;;5088667;28;20292;-64
2023/07/31 11:03:00;;;;;;;2.73;1.57;;;;;;;;;;5099108;28;20573;-64
2023/07/31 11:05:47;;;;;;;2.60;1.80;;;;;;;;;;5098311;28;20209;-64
2023/07/31 11:08:16;;;;;;;4.53;2.33;;;;;;;;;;5098365;28;20226;-64
2023/07/31 11:10:44;;;;;;;6.57;1.90;;;;;;;;;;5098766;28;20322;-64
2023/07/31 11:13:12;;;;;;;4.67;1.87;;;;;;;;;;5098766;28;20234;-64
2023/07/31 11:15:41;;;;;;;4.37;1.63;;;;;;;;;;5098531;28;20291;-64
2023/07/31 11:18:10;;;;;;;3.03;1.70;;;;;;;;;;5098425;28;20285;-64
2023/07/31 11:20:41;;;;;;;6.80;2.20;;;;;;;;;;5098345;28;20237;-64
2023/07/31 11:23:10;;;;;;;6.90;2.30;;;;;;;;;;5098503;28;20236;-64
2023/07/31 11:25:38;;;;;;;4.67;1.90;;;;;;;;;;5098579;28;20209;-64
2023/07/31 11:28:06;;;;;;;5.40;2.00;;;;;;;;;;5098197;28;20260;-65
2023/07/31 11:30:34;;;;;;;3.97;1.70;;;;;;;;;;5097983;28;20226;-64
2023/07/31 11:33:04;;;;;;;6.03;1.90;;;;;;;;;;5098132;28;20661;-64
2023/07/31 11:35:33;;;;;;;5.30;2.93;;;;;;;;;;5098034;28;20209;-64
2023/07/31 11:38:01;;;;;;;5.33;2.40;;;;;;;;;;5098011;28;20229;-64
2023/07/31 11:40:29;;;;;;;15.57;3.17;;;;;;;;;;5090877;28;20306;-65
2023/07/31 11:43:04;;;;;;;4.83;2.70;;;;;;;;;;5098086;28;20233;-65
2023/07/31 11:45:32;;;;;;;6.17;2.60;;;;;;;;;;5098094;28;20236;-65
2023/07/31 11:48:01;;;;;;;4.47;1.90;;;;;;;;;;5098447;28;20222;-64
2023/07/31 11:50:34;;;;;;;4.47;2.17;;;;;;;;;;5097753;28;20222;-65
2023/07/31 11:53:07;;;;;;;2.97;1.93;;;;;;;;;;5098389;28;20678;-64
2023/07/31 11:55:35;;;;;;;3.83;2.30;;;;;;;;;;5098181;28;20215;-65
2023/07/31 11:58:03;;;;;;;5.03;2.30;;;;;;;;;;5098178;28;20203;-64
2023/07/31 12:00:32;;;;;;;3.17;2.17;;;;;;;;;;5088557;28;20243;-65
2023/07/31 12:02:59;;;;;;;4.00;2.27;;;;;;;;;;5097806;28;20275;-64
2023/07/31 12:05:28;;;;;;;2.83;1.83;;;;;;;;;;5097854;28;20717;-64
2023/07/31 12:07:58;;;;;;;5.33;2.00;;;;;;;;;;5097872;28;20737;-64
2023/07/31 12:10:26;;;;;;;3.73;2.13;;;;;;;;;;5097624;28;20224;-63
2023/07/31 12:12:59;;;;;;;5.53;2.37;;;;;;;;;;5097933;28;20296;-65
2023/07/31 12:15:33;;;;;;;7.17;2.17;;;;;;;;;;5097971;28;20215;-64
2023/07/31 12:18:01;;;;;;;4.00;2.30;;;;;;;;;;5097656;28;20199;-64
2023/07/31 12:20:30;;;;;;;6.70;3.93;;;;;;;;;;5097593;28;20314;-64
2023/07/31 12:23:00;;;;;;;7.90;4.73;;;;;;;;;;5097825;28;20236;-64
2023/07/31 12:25:31;;;;;;;7.13;4.27;;;;;;;;;;5097860;28;20244;-64
2023/07/31 12:28:04;;;;;;;7.73;3.13;;;;;;;;;;5097446;28;20231;-64
2023/07/31 12:30:34;;;;;;;7.97;2.90;;;;;;;;;;5097688;28;20317;-65
2023/07/31 12:33:05;;;;;;;3.70;2.87;;;;;;;;;;5097514;28;20641;-64
2023/07/31 12:35:37;;;;;;;5.03;2.40;;;;;;;;;;5097172;28;20211;-65
2023/07/31 12:38:06;;;;;;;5.57;2.33;;;;;;;;;;5097727;28;20203;-64
2023/07/31 12:40:34;;;;;;;6.37;2.33;;;;;;;;;;5090851;28;20282;-65
2023/07/31 12:43:03;;;;;;;6.13;2.40;;;;;;;;;;5100224;28;20739;-65
2023/07/31 12:45:31;;;;;;;5.20;3.00;;;;;;;;;;5101493;28;20280;-65
2023/07/31 12:47:59;;;;;;;3.80;1.93;;;;;;;;;;5101283;28;20278;-64
2023/07/31 12:50:27;;;;;;;5.03;1.90;;;;;;;;;;5100791;28;20281;-64
2023/07/31 12:52:55;;;;;;;3.50;2.20;;;;;;;;;;5101519;28;20240;-65
2023/07/31 12:55:24;;;;;;;2.87;1.80;;;;;;;;;;5101448;28;20221;-64
2023/07/31 12:57:52;;;;;;;3.23;2.20;;;;;;;;;;5101483;28;20214;-65
2023/07/31 13:00:21;;;;;;;3.77;1.97;;;;;;;;;;5090955;28;20248;-65
2023/07/31 13:02:49;;;;;;;5.73;2.20;;;;;;;;;;5100977;28;20211;-65
2023/07/31 13:05:19;;;;;;;4.30;2.20;;;;;;;;;;5100706;28;20575;-64
2023/07/31 13:07:47;;;;;;;3.20;1.70;;;;;;;;;;5101002;28;20204;-65
2023/07/31 13:10:17;;;;;;;1.90;1.70;;;;;;;;;;5100801;28;20260;-65
2023/07/31 13:12:46;;;;;;;7.87;1.63;;;;;;;;;;5101176;28;20661;-63
2023/07/31 13:15:15;;;;;;;4.57;2.30;;;;;;;;;;5100821;28;20231;-65
2023/07/31 13:17:42;;;;;;;5.30;2.77;;;;;;;;;;5100949;28;20212;-63
2023/07/31 13:20:10;;;;;;;5.83;2.70;;;;;;;;;;5100854;28;20283;-63
2023/07/31 13:22:38;;;;;;;5.30;2.80;;;;;;;;;;5100379;28;20251;-64
2023/07/31 13:25:06;;;;;;;4.73;2.33;;;;;;;;;;5100937;28;20208;-64
2023/07/31 13:27:35;;;;;;;5.13;2.00;;;;;;;;;;5100537;28;20211;-64
2023/07/31 13:30:04;;;;;;;4.57;2.40;;;;;;;;;;5100709;28;20323;-63
2023/07/31 13:32:32;;;;;;;5.93;2.30;;;;;;;;;;5100640;28;20213;-64
2023/07/31 13:34:59;;;;;;;3.63;2.60;;;;;;;;;;5100738;28;20261;-65
2023/07/31 13:37:27;;;;;;;3.13;1.97;;;;;;;;;;5100220;28;20247;-65
2023/07/31 13:39:55;;;;;;;3.53;2.40;;;;;;;;;;5096946;28;20221;-65
2023/07/31 13:42:23;;;;;;;5.70;2.40;;;;;;;;;;5097227;28;20201;-65
2023/07/31 13:44:50;;;;;;;6.33;1.90;;;;;;;;;;5100477;28;20318;-64
2023/07/31 13:47:20;;;;;;;4.40;1.67;;;;;;;;;;5100400;28;20207;-63
2023/07/31 13:49:47;;;;;;;3.33;1.70;;;;;;;;;;5099932;28;20562;-65
2023/07/31 13:52:15;;;;;;;4.90;3.00;;;;;;;;;;5099925;28;20231;-65
2023/07/31 13:54:43;;;;;;;16.33;4.33;;;;;;;;;;5100127;28;20209;-64
2023/07/31 13:57:11;;;;;;;7.90;2.60;;;;;;;;;;5100261;28;20209;-65
2023/07/31 13:59:39;;;;;;;5.22;2.50;;;;;;;;;;5091580;28;20227;-65
2023/07/31 14:02:07;;;;;;;4.33;2.43;;;;;;;;;;5098931;28;20236;-64
2023/07/31 14:04:36;;;;;;;4.00;2.40;;;;;;;;;;5099921;28;20640;-64
2023/07/31 14:07:04;;;;;;;4.77;2.37;;;;;;;;;;5099660;28;20272;-63
2023/07/31 14:09:32;;;;;;;3.63;2.33;;;;;;;;;;5099785;28;20228;-64
2023/07/31 14:11:59;;;;;;;8.63;2.50;;;;;;;;;;5099719;28;20258;-64
2023/07/31 14:14:27;;;;;;;4.00;2.13;;;;;;;;;;5099860;28;20291;-66
2023/07/31 14:16:55;;;;;;;7.10;2.00;;;;;;;;;;5099930;28;20209;-64
2023/07/31 14:19:24;;;;;;;2.67;1.95;;;;;;;;;;5099792;28;20206;-66
2023/07/31 14:21:54;;;;;;;5.32;2.42;;;;;;;;;;5099396;28;20260;-65
2023/07/31 14:24:38;;;;;;;7.05;2.03;;;;;;;;;;5099700;28;20211;-66
2023/07/31 14:27:06;;;;;;;4.25;2.08;;;;;;;;;;5099712;28;20209;-65
2023/07/31 14:29:34;;;;;;;3.08;2.10;;;;;;;;;;5099488;28;20229;-65
2023/07/31 14:32:01;;;;;;;3.72;2.08;;;;;;;;;;5099562;28;20204;-65
2023/07/31 14:34:29;;;;;;;3.35;2.33;;;;;;;;;;5099329;28;20746;-65
2023/07/31 14:36:58;;;;;;;7.40;2.05;;;;;;;;;;5098916;28;20295;-65
2023/07/31 14:39:26;;;;;;;2.38;1.95;;;;;;;;;;5099398;28;20281;-65
2023/07/31 14:41:54;;;;;;;4.10;2.30;;;;;;;;;;5092649;28;20216;-65
2023/07/31 14:44:21;;;;;;;2.63;1.90;;;;;;;;;;5099324;28;20218;-65
2023/07/31 14:46:50;;;;;;;2.95;2.13;;;;;;;;;;5099158;28;20223;-65
2023/07/31 14:49:17;;;;;;;4.28;2.22;;;;;;;;;;5099015;28;20234;-66
2023/07/31 14:51:45;;;;;;;4.05;2.47;;;;;;;;;;5098745;28;20720;-65